createdAt,value
2022-10-02T00:02:06.830Z,70.09
2022-10-02T00:04:44.264Z,70.28
2022-10-02T00:07:17.024Z,70.11
2022-10-02T00:09:51.548Z,70.20
2022-10-02T00:12:25.004Z,70.15
2022-10-02T00:15:07.470Z,70.18
2022-10-02T00:17:45.775Z,69.99
2022-10-02T00:20:18.881Z,70.03
2022-10-02T00:22:55.304Z,69.97
2022-10-02T00:25:30.586Z,70.07
2022-10-02T00:28:17.270Z,69.94
2022-10-02T00:30:59.754Z,70.21
2022-10-02T00:33:39.543Z,70.11
2022-10-02T00:36:22.526Z,70.24
2022-10-02T00:39:03.443Z,70.15
2022-10-02T00:42:12.004Z,70.37
2022-10-02T00:44:58.394Z,70.51
2022-10-02T00:47:39.279Z,70.58
2022-10-02T00:50:27.845Z,70.60
2022-10-02T00:53:10.657Z,70.43
2022-10-02T00:55:56.723Z,70.49
2022-10-02T00:58:51.619Z,70.62
2022-10-02T01:01:38.919Z,71.02
2022-10-02T01:04:20.301Z,70.74
2022-10-02T01:06:59.039Z,70.92
2022-10-02T01:09:32.639Z,70.75
2022-10-02T01:12:13.420Z,70.83
2022-10-02T01:14:51.413Z,71.40
2022-10-02T01:17:26.194Z,71.20
2022-10-02T01:19:54.953Z,71.10
2022-10-02T01:22:32.794Z,71.37
2022-10-02T01:25:05.609Z,71.10
2022-10-02T01:27:39.546Z,71.41
2022-10-02T01:30:13.003Z,71.36
2022-10-02T01:32:44.357Z,71.46
2022-10-02T01:35:13.084Z,71.44
2022-10-02T01:37:45.224Z,71.13
2022-10-02T01:40:26.318Z,71.51
2022-10-02T01:42:57.593Z,71.53
2022-10-02T01:45:38.731Z,71.48
2022-10-02T01:48:15.664Z,71.51
2022-10-02T01:50:53.924Z,71.55
2022-10-02T01:53:30.854Z,71.46
2022-10-02T01:56:08.723Z,71.69
2022-10-02T01:58:47.094Z,71.63
2022-10-02T02:01:30.090Z,71.59
2022-10-02T02:04:05.334Z,71.68
2022-10-02T02:06:39.744Z,71.58
2022-10-02T02:09:14.163Z,71.48
2022-10-02T02:11:56.629Z,71.54
2022-10-02T02:14:31.945Z,71.54
2022-10-02T02:17:11.344Z,71.55
2022-10-02T02:19:45.714Z,71.82
2022-10-02T02:22:21.056Z,71.43
2022-10-02T02:24:54.796Z,71.70
2022-10-02T02:27:29.358Z,71.55
2022-10-02T02:30:04.628Z,71.46
2022-10-02T02:32:37.484Z,71.58
2022-10-02T02:35:10.954Z,71.85
2022-10-02T02:37:43.454Z,71.61
2022-10-02T02:40:17.493Z,71.33
2022-10-02T02:42:52.555Z,71.77
2022-10-02T02:45:24.403Z,71.85
2022-10-02T02:47:56.443Z,71.80
2022-10-02T02:50:32.965Z,71.45
2022-10-02T02:53:08.614Z,71.52
2022-10-02T02:55:44.910Z,71.62
2022-10-02T02:58:20.184Z,71.82
2022-10-02T03:00:49.124Z,71.77
2022-10-02T03:03:19.517Z,71.78
2022-10-02T03:05:52.155Z,71.52
2022-10-02T03:08:25.295Z,71.61
2022-10-02T03:11:10.737Z,71.80
2022-10-02T03:13:50.815Z,71.78
2022-10-02T03:16:30.834Z,71.96
2022-10-02T03:19:12.105Z,71.64
2022-10-02T03:21:48.577Z,71.82
2022-10-02T03:24:22.824Z,71.70
2022-10-02T03:26:57.094Z,71.96
2022-10-02T03:29:33.044Z,72.03
2022-10-02T03:32:07.054Z,71.94
2022-10-02T03:34:36.466Z,71.90
2022-10-02T03:37:09.494Z,71.90
2022-10-02T03:39:44.166Z,71.58
2022-10-02T03:42:15.017Z,71.70
2022-10-02T03:44:45.493Z,71.76
2022-10-02T03:47:14.074Z,71.93
2022-10-02T03:49:44.524Z,72.06
2022-10-02T03:52:16.508Z,72.06
2022-10-02T03:54:46.308Z,72.06
2022-10-02T03:57:21.550Z,71.87
2022-10-02T03:59:59.229Z,72.01
2022-10-02T04:02:34.704Z,71.96
2022-10-02T04:05:11.505Z,72.25
2022-10-02T04:07:43.636Z,71.90
2022-10-02T04:10:27.513Z,72.03
2022-10-02T04:13:05.226Z,72.01
2022-10-02T04:15:48.777Z,72.01
2022-10-02T04:18:24.458Z,71.96
2022-10-02T04:20:54.815Z,71.92
2022-10-02T04:23:28.394Z,71.92
2022-10-02T04:26:02.204Z,72.11
2022-10-02T04:28:38.045Z,71.94
2022-10-02T04:31:14.179Z,72.19
2022-10-02T04:33:42.784Z,71.76
2022-10-02T04:36:22.426Z,71.92
2022-10-02T04:39:19.404Z,72.14
2022-10-02T04:42:17.014Z,72.19
2022-10-02T04:45:08.454Z,72.09
2022-10-02T04:47:57.465Z,72.20
2022-10-02T04:50:39.864Z,71.95
2022-10-02T04:53:20.994Z,71.84
2022-10-02T04:56:04.943Z,72.01
2022-10-02T04:59:07.890Z,72.06
2022-10-02T05:01:57.117Z,72.16
2022-10-02T05:04:52.874Z,72.11
2022-10-02T05:08:00.605Z,72.03
2022-10-02T05:10:45.925Z,71.98
2022-10-02T05:13:31.355Z,71.93
2022-10-02T05:16:11.999Z,71.92
2022-10-02T05:18:59.454Z,72.20
2022-10-02T05:21:54.715Z,72.09
2022-10-02T05:24:45.218Z,72.15
2022-10-02T05:27:25.214Z,72.06
2022-10-02T05:30:08.925Z,71.94
2022-10-02T05:33:05.094Z,72.19
2022-10-02T05:35:47.494Z,72.02
2022-10-02T05:38:29.764Z,72.21
2022-10-02T05:41:06.003Z,71.98
2022-10-02T05:43:43.764Z,71.88
2022-10-02T05:46:17.889Z,72.05
2022-10-02T05:48:50.475Z,72.04
2022-10-02T05:51:29.396Z,72.07
2022-10-02T05:54:05.033Z,72.44
2022-10-02T05:56:39.886Z,72.08
2022-10-02T05:59:15.723Z,72.30
2022-10-02T06:01:49.592Z,72.30
2022-10-02T06:04:25.525Z,72.04
2022-10-02T06:06:59.084Z,72.41
2022-10-02T06:09:33.204Z,72.31
2022-10-02T06:12:05.000Z,72.34
2022-10-02T06:14:38.606Z,72.32
2022-10-02T06:17:12.993Z,72.68
2022-10-02T06:19:48.085Z,72.60
2022-10-02T06:22:20.286Z,72.30
2022-10-02T06:24:55.385Z,72.20
2022-10-02T06:27:33.244Z,72.66
2022-10-02T06:30:06.333Z,72.38
2022-10-02T06:32:46.455Z,72.40
2022-10-02T06:35:16.304Z,72.46
2022-10-02T06:37:58.794Z,72.61
2022-10-02T06:40:47.654Z,72.41
2022-10-02T06:43:30.084Z,72.48
2022-10-02T06:46:08.907Z,72.65
2022-10-02T06:48:49.585Z,72.42
2022-10-02T06:51:26.335Z,72.42
2022-10-02T06:54:20.606Z,72.32
2022-10-02T06:57:06.724Z,72.63
2022-10-02T06:59:44.064Z,72.53
2022-10-02T07:02:27.630Z,72.68
2022-10-02T07:05:24.845Z,72.68
2022-10-02T07:08:07.367Z,72.73
2022-10-02T07:10:46.174Z,72.54
2022-10-02T07:13:45.154Z,72.46
2022-10-02T07:16:42.003Z,72.54
2022-10-02T07:19:28.784Z,72.44
2022-10-02T07:22:32.503Z,72.57
2022-10-02T07:25:21.194Z,72.47
2022-10-02T07:27:57.774Z,72.55
2022-10-02T07:30:41.794Z,72.64
2022-10-02T07:33:27.820Z,72.68
2022-10-02T07:36:08.804Z,72.34
2022-10-02T07:39:12.914Z,72.43
2022-10-02T07:42:02.264Z,72.34
2022-10-02T07:44:42.775Z,72.45
2022-10-02T07:47:28.163Z,72.32
2022-10-02T07:50:03.446Z,72.37
2022-10-02T07:52:39.854Z,72.38
2022-10-02T07:55:20.384Z,72.29
2022-10-02T07:57:58.433Z,72.08
2022-10-02T08:00:30.149Z,72.01
2022-10-02T08:03:03.163Z,72.20
2022-10-02T08:05:36.484Z,72.27
2022-10-02T08:08:11.294Z,71.99
2022-10-02T08:10:43.724Z,71.84
2022-10-02T08:13:20.740Z,71.99
2022-10-02T08:15:55.699Z,71.87
2022-10-02T08:18:35.595Z,71.72
2022-10-02T08:21:07.524Z,72.08
2022-10-02T08:23:40.984Z,72.10
2022-10-02T08:26:16.184Z,71.71
2022-10-02T08:28:51.304Z,71.81
2022-10-02T08:31:20.080Z,71.73
2022-10-02T08:33:50.248Z,72.13
2022-10-02T08:36:55.564Z,72.55
2022-10-02T08:39:43.024Z,72.31
2022-10-02T08:42:56.534Z,72.15
2022-10-02T08:46:04.700Z,72.13
2022-10-02T08:49:21.865Z,71.89
2022-10-02T08:52:36.484Z,72.25
2022-10-02T08:55:36.283Z,72.12
2022-10-02T08:58:48.484Z,71.97
2022-10-02T09:01:42.933Z,71.95
2022-10-02T09:04:52.654Z,71.98
2022-10-02T09:08:09.245Z,72.04
2022-10-02T09:11:22.659Z,71.82
2022-10-02T09:14:37.660Z,72.18
2022-10-02T09:17:25.094Z,72.21
2022-10-02T09:20:20.364Z,72.14
2022-10-02T09:23:29.654Z,71.43
2022-10-02T09:26:05.523Z,70.51
2022-10-02T09:29:29.514Z,70.18
2022-10-02T09:32:43.514Z,69.88
2022-10-02T09:35:50.274Z,69.21
2022-10-02T09:38:40.463Z,68.81
2022-10-02T09:41:51.379Z,68.51
2022-10-02T09:45:01.553Z,68.64
2022-10-02T09:48:08.945Z,68.75
2022-10-02T09:50:51.914Z,67.62
2022-10-02T09:53:55.065Z,67.12
2022-10-02T09:56:59.104Z,67.49
2022-10-02T09:59:42.895Z,67.21
2022-10-02T10:02:42.295Z,67.43
2022-10-02T10:05:49.293Z,65.74
2022-10-02T10:08:37.825Z,65.77
2022-10-02T10:11:38.035Z,65.81
2022-10-02T10:14:51.484Z,64.87
2022-10-02T10:18:11.974Z,63.99
2022-10-02T10:21:11.964Z,64.20
2022-10-02T10:24:10.634Z,64.03
2022-10-02T10:27:08.337Z,63.97
2022-10-02T10:30:16.664Z,64.02
2022-10-02T10:33:35.404Z,63.29
2022-10-02T10:37:00.533Z,63.76
2022-10-02T10:40:03.905Z,62.86
2022-10-02T10:43:08.794Z,63.41
2022-10-02T10:46:00.345Z,63.31
2022-10-02T10:49:12.247Z,63.63
2022-10-02T10:51:48.306Z,63.61
2022-10-02T10:54:48.792Z,63.74
2022-10-02T10:57:29.935Z,63.65
2022-10-02T11:00:18.044Z,63.18
2022-10-02T11:03:12.974Z,63.87
2022-10-02T11:06:17.723Z,64.11
2022-10-02T11:09:19.155Z,63.35
2022-10-02T11:12:09.414Z,62.74
2022-10-02T11:14:52.724Z,62.71
2022-10-02T11:17:41.814Z,62.38
2022-10-02T11:20:26.155Z,62.69
2022-10-02T11:23:26.664Z,62.49
2022-10-02T11:26:22.404Z,62.16
2022-10-02T11:29:20.944Z,61.49
2022-10-02T11:32:29.114Z,60.89
2022-10-02T11:35:19.754Z,60.66
2022-10-02T11:38:15.305Z,60.93
2022-10-02T11:41:25.044Z,62.03
2022-10-02T11:44:10.609Z,61.31
2022-10-02T11:47:24.774Z,60.56
2022-10-02T11:50:31.774Z,60.07
2022-10-02T11:53:11.433Z,60.15
2022-10-02T11:55:53.220Z,59.70
2022-10-02T11:58:37.545Z,59.88
2022-10-02T12:01:34.923Z,60.44
2022-10-02T12:04:23.213Z,60.63
2022-10-02T12:07:19.004Z,61.04
2022-10-02T12:10:43.249Z,61.25
2022-10-02T12:13:38.129Z,61.29
2022-10-02T12:16:19.468Z,61.25
2022-10-02T12:19:10.504Z,61.88
2022-10-02T12:22:10.665Z,62.57
2022-10-02T12:25:09.524Z,62.60
2022-10-02T12:27:52.201Z,63.27
2022-10-02T12:30:22.774Z,63.78
2022-10-02T12:33:28.074Z,63.93
2022-10-02T12:36:25.611Z,64.55
2022-10-02T12:39:05.264Z,65.10
2022-10-02T12:42:14.114Z,65.29
2022-10-02T12:45:21.103Z,65.55
2022-10-02T12:47:57.874Z,66.00
2022-10-02T12:50:41.674Z,66.44
2022-10-02T12:53:38.814Z,66.73
2022-10-02T12:56:54.895Z,67.31
2022-10-02T12:59:31.225Z,67.65
2022-10-02T13:02:56.051Z,68.17
2022-10-02T13:05:46.600Z,68.04
2022-10-02T13:08:35.734Z,69.00
2022-10-02T13:11:12.714Z,68.14
2022-10-02T13:14:05.473Z,67.74
2022-10-02T13:16:59.477Z,67.33
2022-10-02T13:19:37.154Z,67.57
2022-10-02T13:22:13.579Z,67.52
2022-10-02T13:25:00.824Z,67.85
2022-10-02T13:27:38.364Z,68.18
2022-10-02T13:30:16.619Z,67.60
2022-10-02T13:33:15.654Z,67.69
2022-10-02T13:36:11.835Z,67.49
2022-10-02T13:39:03.784Z,68.27
2022-10-02T13:41:49.794Z,67.89
2022-10-02T13:44:30.134Z,68.55
2022-10-02T13:47:41.954Z,68.64
2022-10-02T13:50:27.263Z,68.56
2022-10-02T13:53:25.413Z,67.30
2022-10-02T13:55:57.985Z,66.43
2022-10-02T13:58:50.454Z,66.32
2022-10-02T14:01:28.781Z,66.14
2022-10-02T14:04:15.200Z,65.68
2022-10-02T14:06:50.347Z,65.37
2022-10-02T14:09:31.184Z,65.63
2022-10-02T14:12:20.734Z,65.67
2022-10-02T14:15:05.124Z,67.81
2022-10-02T14:17:46.825Z,68.25
2022-10-02T14:20:31.094Z,68.96
2022-10-02T14:23:14.294Z,69.52
2022-10-02T14:25:56.254Z,70.16
2022-10-02T14:28:45.818Z,69.87
2022-10-02T14:31:42.651Z,69.99
2022-10-02T14:34:37.794Z,69.76
2022-10-02T14:37:45.724Z,69.13
2022-10-02T14:40:16.154Z,69.57
2022-10-02T14:43:01.924Z,69.26
2022-10-02T14:45:54.881Z,69.03
2022-10-02T14:48:38.344Z,70.12
2022-10-02T14:51:22.475Z,69.06
2022-10-02T14:54:18.420Z,69.44
2022-10-02T14:57:09.419Z,69.62
2022-10-02T15:00:03.434Z,67.84
2022-10-02T15:02:56.905Z,68.44
2022-10-02T15:05:46.778Z,68.82
2022-10-02T15:08:20.224Z,69.27
2022-10-02T15:10:50.855Z,69.67
2022-10-02T15:13:28.864Z,69.81
2022-10-02T15:16:21.384Z,69.94
2022-10-02T15:18:58.434Z,70.01
2022-10-02T15:21:32.525Z,70.56
2022-10-02T15:24:14.404Z,70.39
2022-10-02T15:26:51.968Z,70.11
2022-10-02T15:29:30.523Z,70.44
2022-10-02T15:32:34.836Z,70.39
2022-10-02T15:35:20.656Z,69.83
2022-10-02T15:38:04.532Z,70.17
2022-10-02T15:40:37.755Z,69.99
2022-10-02T15:43:29.350Z,70.30
2022-10-02T15:46:11.673Z,70.09
2022-10-02T15:49:08.864Z,70.11
2022-10-02T15:51:53.784Z,70.08
2022-10-02T15:54:39.784Z,69.85
2022-10-02T15:57:26.864Z,69.82
2022-10-02T16:00:10.938Z,70.09
2022-10-02T16:02:58.849Z,69.38
2022-10-02T16:05:52.492Z,69.70
2022-10-02T16:08:36.744Z,69.65
2022-10-02T16:11:40.425Z,69.73
2022-10-02T16:14:15.425Z,69.56
2022-10-02T16:17:16.184Z,69.75
2022-10-02T16:20:26.754Z,69.31
2022-10-02T16:23:07.654Z,69.29
2022-10-02T16:25:52.954Z,69.11
2022-10-02T16:28:36.901Z,69.26
2022-10-02T16:31:23.359Z,69.23
2022-10-02T16:34:02.595Z,69.13
2022-10-02T16:36:43.079Z,69.35
2022-10-02T16:39:34.835Z,68.40
2022-10-02T16:42:14.385Z,68.56
2022-10-02T16:45:06.494Z,68.65
2022-10-02T16:47:45.854Z,68.42
2022-10-02T16:50:25.135Z,68.12
2022-10-02T16:52:59.430Z,67.38
2022-10-02T16:55:34.245Z,67.19
2022-10-02T16:58:13.703Z,67.25
2022-10-02T17:00:55.340Z,67.50
2022-10-02T17:03:31.883Z,67.45
2022-10-02T17:06:08.784Z,67.44
2022-10-02T17:08:43.824Z,67.56
2022-10-02T17:11:21.834Z,67.55
2022-10-02T17:14:04.013Z,67.45
2022-10-02T17:16:40.872Z,67.65
2022-10-02T17:19:22.345Z,67.71
2022-10-02T17:21:57.884Z,67.89
2022-10-02T17:24:38.164Z,68.38
2022-10-02T17:27:15.514Z,67.60
2022-10-02T17:29:53.164Z,67.73
2022-10-02T17:32:48.708Z,68.08
2022-10-02T17:35:19.809Z,68.34
2022-10-02T17:38:05.634Z,68.22
2022-10-02T17:40:41.481Z,68.21
2022-10-02T17:43:24.214Z,68.29
2022-10-02T17:46:03.403Z,68.61
2022-10-02T17:48:44.377Z,68.60
2022-10-02T17:51:51.385Z,68.53
2022-10-02T17:55:03.144Z,68.57
2022-10-02T17:57:51.943Z,69.05
2022-10-02T18:00:24.229Z,68.83
2022-10-02T18:03:33.294Z,68.68
2022-10-02T18:06:15.835Z,68.19
2022-10-02T18:09:12.279Z,68.64
2022-10-02T18:12:03.976Z,68.80
2022-10-02T18:15:05.163Z,68.67
2022-10-02T18:17:48.330Z,68.79
2022-10-02T18:20:34.893Z,68.50
2022-10-02T18:23:18.674Z,68.77
2022-10-02T18:26:08.728Z,68.82
2022-10-02T18:29:08.045Z,68.83
2022-10-02T18:31:59.813Z,68.58
2022-10-02T18:34:56.117Z,68.51
2022-10-02T18:37:49.800Z,68.47
2022-10-02T18:40:27.761Z,68.84
2022-10-02T18:43:24.224Z,68.76
2022-10-02T18:46:09.332Z,68.82
2022-10-02T18:48:59.929Z,68.84
2022-10-02T18:52:02.764Z,68.83
2022-10-02T18:54:50.720Z,68.63
2022-10-02T18:57:35.719Z,68.65
2022-10-02T19:00:15.964Z,68.60
2022-10-02T19:03:13.254Z,68.56
2022-10-02T19:05:56.114Z,68.68
2022-10-02T19:08:36.769Z,68.67
2022-10-02T19:11:21.879Z,68.65
2022-10-02T19:13:55.635Z,68.74
2022-10-02T19:16:29.022Z,68.84
2022-10-02T19:19:16.273Z,68.77
2022-10-02T19:21:53.957Z,69.00
2022-10-02T19:24:33.599Z,68.73
2022-10-02T19:27:16.813Z,68.93
2022-10-02T19:29:50.634Z,69.18
2022-10-02T19:32:24.715Z,69.61
2022-10-02T19:35:04.875Z,69.66
2022-10-02T19:37:42.774Z,69.87
2022-10-02T19:40:19.574Z,70.18
2022-10-02T19:42:51.960Z,69.96
2022-10-02T19:45:27.002Z,69.91
2022-10-02T19:47:58.554Z,69.93
2022-10-02T19:50:40.217Z,69.71
2022-10-02T19:53:20.604Z,69.68
2022-10-02T19:55:56.995Z,69.77
2022-10-02T19:58:34.823Z,69.49
2022-10-02T20:01:08.679Z,69.57
2022-10-02T20:03:57.919Z,69.57
2022-10-02T20:06:58.814Z,69.76
2022-10-02T20:09:36.098Z,70.11
2022-10-02T20:12:10.659Z,70.02
2022-10-02T20:14:44.211Z,69.86
2022-10-02T20:17:14.111Z,70.03
2022-10-02T20:19:48.655Z,69.72
2022-10-02T20:22:34.664Z,70.01
2022-10-02T20:25:10.397Z,70.50
2022-10-02T20:27:42.369Z,70.37
2022-10-02T20:30:22.250Z,70.44
2022-10-02T20:33:16.240Z,70.56
2022-10-02T20:36:17.765Z,70.43
2022-10-02T20:38:55.526Z,70.63
2022-10-02T20:41:28.244Z,71.01
2022-10-02T20:44:04.798Z,70.70
2022-10-02T20:47:11.025Z,71.12
2022-10-02T20:50:30.589Z,70.91
2022-10-02T20:53:34.049Z,71.06
2022-10-02T20:56:29.994Z,70.99
2022-10-02T20:59:58.814Z,71.15
2022-10-02T21:03:04.439Z,70.87
2022-10-02T21:06:15.932Z,71.17
2022-10-02T21:09:29.443Z,71.21
2022-10-02T21:12:25.315Z,71.17
2022-10-02T21:15:14.494Z,71.34
2022-10-02T21:18:09.139Z,72.07
2022-10-02T21:21:07.987Z,71.89
2022-10-02T21:24:14.540Z,72.62
2022-10-02T21:27:27.424Z,72.39
2022-10-02T21:30:35.316Z,72.56
2022-10-02T21:33:07.794Z,72.28
2022-10-02T21:35:46.320Z,72.41
2022-10-02T21:38:42.194Z,72.64
2022-10-02T21:41:57.637Z,72.45
2022-10-02T21:45:07.294Z,72.55
2022-10-02T21:47:57.354Z,72.79
2022-10-02T21:50:59.981Z,73.06
2022-10-02T21:54:01.114Z,73.49
2022-10-02T21:56:54.264Z,73.61
2022-10-02T21:59:59.673Z,73.58
2022-10-02T22:03:05.569Z,73.86
2022-10-02T22:06:11.036Z,73.73
2022-10-02T22:09:04.714Z,73.76
2022-10-02T22:11:47.058Z,73.61
2022-10-02T22:14:23.975Z,73.58
2022-10-02T22:17:00.174Z,73.63
2022-10-02T22:19:44.979Z,73.69
2022-10-02T22:22:29.735Z,73.59
2022-10-02T22:25:15.566Z,73.32
2022-10-02T22:28:01.979Z,73.39
2022-10-02T22:30:32.685Z,73.58
2022-10-02T22:33:23.375Z,73.72
2022-10-02T22:36:27.538Z,73.49
2022-10-02T22:39:05.487Z,73.39
2022-10-02T22:41:41.163Z,73.57
2022-10-02T22:44:23.088Z,73.49
2022-10-02T22:46:58.383Z,73.41
2022-10-02T22:49:34.404Z,73.15
2022-10-02T22:52:10.504Z,73.35
2022-10-02T22:54:47.879Z,73.33
2022-10-02T22:57:28.985Z,73.23
2022-10-02T23:00:03.683Z,73.43
2022-10-02T23:02:37.169Z,73.13
2022-10-02T23:05:15.624Z,73.29
2022-10-02T23:07:49.814Z,73.13
2022-10-02T23:10:27.345Z,72.95
2022-10-02T23:13:07.594Z,72.88
2022-10-02T23:15:46.500Z,72.62
2022-10-02T23:18:29.534Z,72.69
2022-10-02T23:21:04.924Z,72.60
2022-10-02T23:23:39.394Z,72.67
2022-10-02T23:26:17.604Z,72.67
2022-10-02T23:28:54.094Z,72.40
2022-10-02T23:31:30.648Z,72.27
2022-10-02T23:34:08.514Z,72.46
2022-10-02T23:36:48.469Z,72.47
2022-10-02T23:39:24.229Z,72.38
2022-10-02T23:41:56.464Z,72.10
2022-10-02T23:44:37.060Z,72.10
2022-10-02T23:47:20.514Z,72.21
2022-10-02T23:49:53.522Z,72.03
2022-10-02T23:52:47.959Z,72.14
2022-10-02T23:55:44.124Z,71.97
2022-10-02T23:58:48.896Z,72.17
